createdAt,value
2023-01-19T00:01:29.609Z,8.10
2023-01-19T00:03:56.687Z,8.03
2023-01-19T00:06:23.785Z,8.04
2023-01-19T00:08:51.009Z,8.04
2023-01-19T00:11:18.801Z,7.99
2023-01-19T00:13:53.776Z,8.00
2023-01-19T00:16:25.942Z,7.99
2023-01-19T00:18:58.769Z,8.00
2023-01-19T00:21:28.969Z,8.01
2023-01-19T00:23:55.982Z,7.96
2023-01-19T00:26:22.979Z,7.92
2023-01-19T00:28:50.525Z,7.90
2023-01-19T00:31:20.875Z,7.85
2023-01-19T00:33:49.484Z,7.76
2023-01-19T00:36:16.973Z,7.79
2023-01-19T00:38:44.120Z,7.78
2023-01-19T00:41:11.317Z,7.75
2023-01-19T00:43:38.403Z,7.74
2023-01-19T00:46:05.616Z,7.75
2023-01-19T00:48:32.634Z,7.69
2023-01-19T00:51:00.196Z,7.66
2023-01-19T00:53:29.386Z,7.82
2023-01-19T00:55:56.331Z,7.78
2023-01-19T00:58:23.573Z,7.80
2023-01-19T01:00:53.075Z,7.82
2023-01-19T01:03:20.144Z,7.81
2023-01-19T01:05:47.112Z,7.74
2023-01-19T01:08:14.180Z,7.71
2023-01-19T01:10:41.057Z,7.74
2023-01-19T01:13:23.642Z,7.73
2023-01-19T01:15:53.626Z,7.74
2023-01-19T01:18:21.990Z,7.73
2023-01-19T01:20:48.976Z,7.72
2023-01-19T01:23:16.398Z,7.74
2023-01-19T01:25:43.572Z,7.63
2023-01-19T01:28:10.514Z,7.65
2023-01-19T01:30:41.251Z,7.67
2023-01-19T01:33:08.606Z,7.64
2023-01-19T01:35:35.481Z,7.63
2023-01-19T01:38:02.523Z,7.65
2023-01-19T01:40:29.819Z,7.58
2023-01-19T01:42:56.960Z,7.61
2023-01-19T01:45:31.960Z,7.61
2023-01-19T01:48:17.697Z,7.61
2023-01-19T01:51:17.723Z,7.51
2023-01-19T01:53:46.652Z,7.49
2023-01-19T01:56:20.413Z,7.48
2023-01-19T01:58:48.588Z,7.44
2023-01-19T02:01:34.191Z,7.49
2023-01-19T02:04:01.292Z,7.54
2023-01-19T02:06:28.702Z,7.53
2023-01-19T02:09:20.999Z,7.56
2023-01-19T02:12:06.312Z,7.52
2023-01-19T02:14:37.419Z,7.45
2023-01-19T02:17:04.966Z,7.44
2023-01-19T02:19:42.229Z,7.45
2023-01-19T02:22:36.177Z,7.39
2023-01-19T02:25:05.183Z,7.34
2023-01-19T02:27:33.269Z,7.33
2023-01-19T02:30:03.748Z,7.32
2023-01-19T02:32:30.856Z,7.26
2023-01-19T02:34:58.083Z,7.19
2023-01-19T02:37:28.494Z,7.19
2023-01-19T02:39:59.333Z,7.14
2023-01-19T02:42:31.823Z,7.12
2023-01-19T02:44:59.849Z,7.01
2023-01-19T02:47:26.845Z,7.03
2023-01-19T02:49:58.036Z,7.03
2023-01-19T02:52:26.977Z,7.04
2023-01-19T02:55:22.762Z,7.00
2023-01-19T02:57:55.694Z,6.99
2023-01-19T03:00:42.988Z,6.96
2023-01-19T03:03:10.623Z,6.93
2023-01-19T03:06:21.619Z,6.92
2023-01-19T03:08:56.207Z,6.79
2023-01-19T03:11:28.592Z,6.82
2023-01-19T03:14:09.036Z,6.79
2023-01-19T03:16:45.742Z,6.81
2023-01-19T03:19:27.410Z,6.81
2023-01-19T03:22:09.519Z,6.81
2023-01-19T03:24:40.559Z,6.83
2023-01-19T03:27:13.054Z,6.79
2023-01-19T03:29:43.288Z,6.81
2023-01-19T03:32:16.273Z,6.82
2023-01-19T03:34:46.913Z,6.78
2023-01-19T03:37:15.946Z,6.84
2023-01-19T03:39:43.240Z,6.85
2023-01-19T03:42:14.273Z,6.88
2023-01-19T03:44:44.233Z,6.88
2023-01-19T03:47:14.083Z,6.87
2023-01-19T03:49:44.131Z,6.86
2023-01-19T03:52:11.492Z,6.86
2023-01-19T03:54:38.576Z,6.89
2023-01-19T03:57:05.734Z,6.87
2023-01-19T03:59:32.802Z,6.90
2023-01-19T04:01:59.913Z,6.90
2023-01-19T04:04:26.941Z,6.90
2023-01-19T04:06:53.914Z,6.94
2023-01-19T04:09:20.797Z,6.95
2023-01-19T04:11:47.703Z,6.92
2023-01-19T04:14:14.594Z,6.93
2023-01-19T04:16:41.500Z,6.93
2023-01-19T04:19:08.431Z,6.84
2023-01-19T04:21:35.449Z,6.88
2023-01-19T04:24:02.419Z,6.93
2023-01-19T04:26:29.689Z,6.91
2023-01-19T04:28:56.675Z,6.90
2023-01-19T04:31:23.824Z,6.84
2023-01-19T04:33:50.774Z,6.86
2023-01-19T04:36:17.838Z,6.85
2023-01-19T04:38:46.712Z,6.82
2023-01-19T04:41:13.730Z,6.80
2023-01-19T04:43:41.005Z,6.76
2023-01-19T04:46:08.540Z,6.72
2023-01-19T04:48:35.441Z,6.71
2023-01-19T04:51:02.570Z,6.70
2023-01-19T04:53:29.684Z,6.67
2023-01-19T04:55:57.161Z,6.64
2023-01-19T04:58:24.105Z,6.66
2023-01-19T05:00:52.388Z,6.64
2023-01-19T05:03:20.588Z,6.57
2023-01-19T05:05:47.513Z,6.58
2023-01-19T05:08:14.470Z,6.51
2023-01-19T05:10:41.409Z,6.48
2023-01-19T05:13:08.356Z,6.37
2023-01-19T05:15:35.475Z,6.40
2023-01-19T05:18:02.443Z,6.36
2023-01-19T05:20:29.408Z,6.39
2023-01-19T05:23:09.210Z,6.37
2023-01-19T05:25:36.127Z,6.30
2023-01-19T05:28:03.302Z,6.29
2023-01-19T05:30:30.298Z,6.34
2023-01-19T05:32:57.238Z,6.32
2023-01-19T05:35:35.279Z,6.33
2023-01-19T05:38:03.208Z,6.26
2023-01-19T05:40:30.147Z,6.28
2023-01-19T05:43:01.314Z,6.29
2023-01-19T05:45:28.852Z,6.30
2023-01-19T05:47:55.887Z,6.29
2023-01-19T05:50:23.686Z,6.30
2023-01-19T05:52:53.296Z,6.30
2023-01-19T05:55:21.659Z,6.29
2023-01-19T05:57:48.571Z,6.29
2023-01-19T06:00:16.228Z,6.30
2023-01-19T06:02:43.747Z,6.28
2023-01-19T06:05:10.906Z,6.23
2023-01-19T06:07:37.912Z,6.22
2023-01-19T06:10:05.446Z,6.24
2023-01-19T06:12:42.335Z,6.20
2023-01-19T06:15:10.455Z,6.19
2023-01-19T06:17:37.417Z,6.20
2023-01-19T06:20:05.458Z,6.20
2023-01-19T06:22:32.632Z,6.22
2023-01-19T06:24:59.637Z,6.23
2023-01-19T06:27:26.544Z,6.23
2023-01-19T06:29:53.435Z,6.23
2023-01-19T06:32:20.472Z,6.18
2023-01-19T06:34:47.420Z,6.17
2023-01-19T06:37:17.083Z,6.19
2023-01-19T06:39:45.473Z,6.25
2023-01-19T06:42:12.349Z,6.24
2023-01-19T06:44:39.369Z,6.28
2023-01-19T06:47:14.956Z,6.31
2023-01-19T06:49:43.558Z,6.29
2023-01-19T06:52:17.607Z,6.28
2023-01-19T06:54:46.843Z,6.30
2023-01-19T06:57:14.882Z,6.30
2023-01-19T06:59:42.269Z,6.30
2023-01-19T07:02:26.471Z,6.29
2023-01-19T07:04:55.553Z,6.26
2023-01-19T07:07:22.714Z,6.32
2023-01-19T07:09:49.861Z,6.31
2023-01-19T07:12:22.724Z,6.36
2023-01-19T07:14:50.435Z,6.37
2023-01-19T07:17:17.459Z,6.35
2023-01-19T07:19:44.504Z,6.34
2023-01-19T07:22:11.428Z,6.33
2023-01-19T07:24:38.419Z,6.44
2023-01-19T07:27:05.643Z,6.86
2023-01-19T07:29:32.723Z,7.25
2023-01-19T07:32:00.037Z,7.91
2023-01-19T07:34:26.906Z,8.55
2023-01-19T07:36:54.103Z,9.16
2023-01-19T07:39:21.402Z,9.75
2023-01-19T07:41:49.064Z,10.21
2023-01-19T07:44:26.789Z,10.50
2023-01-19T07:47:00.774Z,11.00
2023-01-19T07:49:27.787Z,11.73
2023-01-19T07:51:56.572Z,12.48
2023-01-19T07:54:23.633Z,13.29
2023-01-19T07:56:55.004Z,13.89
2023-01-19T07:59:22.325Z,14.74
2023-01-19T08:01:49.478Z,15.08
2023-01-19T08:04:16.560Z,15.74
2023-01-19T08:06:45.962Z,16.25
2023-01-19T08:09:17.375Z,16.44
2023-01-19T08:11:44.726Z,16.92
2023-01-19T08:14:11.620Z,17.32
2023-01-19T08:16:38.635Z,17.95
2023-01-19T08:19:05.827Z,18.15
2023-01-19T08:21:33.507Z,18.81
2023-01-19T08:24:00.670Z,19.39
2023-01-19T08:26:33.588Z,19.95
2023-01-19T08:29:04.117Z,20.16
2023-01-19T08:31:31.545Z,20.78
2023-01-19T08:33:58.903Z,21.41
2023-01-19T08:36:26.331Z,21.85
2023-01-19T08:38:53.572Z,22.13
2023-01-19T08:41:20.634Z,22.54
2023-01-19T08:43:48.115Z,22.46
2023-01-19T08:46:17.633Z,22.89
2023-01-19T08:48:51.099Z,23.01
2023-01-19T08:51:18.453Z,23.33
2023-01-19T08:53:45.605Z,23.96
2023-01-19T08:56:13.965Z,24.58
2023-01-19T08:58:42.911Z,25.28
2023-01-19T09:01:11.166Z,25.43
2023-01-19T09:03:38.427Z,25.12
2023-01-19T09:06:08.615Z,25.68
2023-01-19T09:08:35.923Z,26.19
2023-01-19T09:11:03.385Z,26.69
2023-01-19T09:13:30.378Z,27.17
2023-01-19T09:15:57.956Z,27.34
2023-01-19T09:18:25.084Z,27.44
2023-01-19T09:20:52.025Z,27.72
2023-01-19T09:23:20.666Z,28.35
2023-01-19T09:25:48.390Z,27.69
2023-01-19T09:28:19.650Z,26.89
2023-01-19T09:30:47.140Z,25.46
2023-01-19T09:33:21.431Z,24.27
2023-01-19T09:35:49.473Z,23.16
2023-01-19T09:38:16.985Z,22.14
2023-01-19T09:41:04.720Z,21.40
2023-01-19T09:43:42.816Z,22.00
2023-01-19T09:46:21.880Z,23.37
2023-01-19T09:48:53.644Z,24.88
2023-01-19T09:51:35.155Z,25.52
2023-01-19T09:54:42.004Z,26.01
2023-01-19T09:57:12.254Z,26.95
2023-01-19T09:59:39.881Z,27.21
2023-01-19T10:02:31.112Z,28.30
2023-01-19T10:05:22.935Z,28.85
2023-01-19T10:08:09.220Z,27.82
2023-01-19T10:10:37.953Z,28.75
2023-01-19T10:13:04.737Z,28.27
2023-01-19T10:15:37.770Z,28.90
2023-01-19T10:18:19.388Z,28.97
2023-01-19T10:21:18.261Z,29.62
2023-01-19T10:23:54.753Z,29.76
2023-01-19T10:26:28.264Z,30.88
2023-01-19T10:29:01.845Z,31.66
2023-01-19T10:31:29.488Z,31.86
2023-01-19T10:33:56.539Z,31.81
2023-01-19T10:36:33.806Z,31.09
2023-01-19T10:39:00.821Z,31.87
2023-01-19T10:41:36.884Z,32.15
2023-01-19T10:44:05.995Z,32.27
2023-01-19T10:46:44.227Z,31.92
2023-01-19T10:49:36.957Z,32.66
2023-01-19T10:52:06.834Z,32.22
2023-01-19T10:54:37.069Z,31.26
2023-01-19T10:57:08.169Z,31.38
2023-01-19T10:59:38.516Z,32.26
2023-01-19T11:02:19.331Z,32.30
2023-01-19T11:04:50.142Z,32.53
2023-01-19T11:07:33.442Z,33.39
2023-01-19T11:10:28.308Z,33.88
2023-01-19T11:12:55.370Z,34.30
2023-01-19T11:15:23.534Z,34.89
2023-01-19T11:17:50.767Z,35.73
2023-01-19T11:20:26.103Z,36.36
2023-01-19T11:23:30.249Z,35.90
2023-01-19T11:26:02.487Z,35.66
2023-01-19T11:28:37.875Z,35.51
2023-01-19T11:31:10.599Z,34.72
2023-01-19T11:33:53.361Z,31.02
2023-01-19T11:36:25.545Z,28.87
2023-01-19T11:38:57.446Z,27.37
2023-01-19T11:41:34.921Z,26.22
2023-01-19T11:44:21.381Z,25.23
2023-01-19T11:46:56.828Z,23.87
2023-01-19T11:49:47.500Z,22.90
2023-01-19T11:52:34.246Z,21.72
2023-01-19T11:55:22.578Z,21.08
2023-01-19T11:57:58.099Z,20.51
2023-01-19T12:00:40.224Z,19.89
2023-01-19T12:03:15.532Z,19.43
2023-01-19T12:05:48.450Z,18.91
2023-01-19T12:08:30.137Z,18.53
2023-01-19T12:11:00.276Z,18.35
2023-01-19T12:13:27.870Z,18.01
2023-01-19T12:16:01.681Z,17.78
2023-01-19T12:18:35.825Z,17.72
2023-01-19T12:21:04.171Z,17.51
2023-01-19T12:24:13.217Z,17.19
2023-01-19T12:26:50.065Z,16.99
2023-01-19T12:29:22.668Z,16.81
2023-01-19T12:32:14.392Z,16.79
2023-01-19T12:34:52.065Z,16.51
2023-01-19T12:37:30.823Z,16.59
2023-01-19T12:40:01.166Z,16.43
2023-01-19T12:42:28.924Z,16.09
2023-01-19T12:45:14.910Z,15.87
2023-01-19T12:47:52.890Z,15.74
2023-01-19T12:50:23.586Z,15.91
2023-01-19T12:52:57.489Z,15.64
2023-01-19T12:55:31.170Z,15.51
2023-01-19T12:58:14.761Z,15.39
2023-01-19T13:00:44.158Z,15.44
2023-01-19T13:03:17.303Z,15.42
2023-01-19T13:05:44.221Z,15.43
2023-01-19T13:08:13.910Z,15.24
2023-01-19T13:11:14.314Z,15.40
2023-01-19T13:13:45.129Z,15.36
2023-01-19T13:16:30.424Z,15.28
2023-01-19T13:19:06.613Z,15.18
2023-01-19T13:21:43.626Z,15.28
2023-01-19T13:24:22.478Z,15.38
2023-01-19T13:26:49.460Z,15.38
2023-01-19T13:29:41.341Z,15.42
2023-01-19T13:32:18.788Z,15.34
2023-01-19T13:34:51.354Z,15.32
2023-01-19T13:37:30.909Z,15.41
2023-01-19T13:39:58.816Z,15.25
2023-01-19T13:42:34.374Z,15.33
2023-01-19T13:45:07.257Z,15.38
2023-01-19T13:47:42.203Z,15.16
2023-01-19T13:50:25.015Z,15.18
2023-01-19T13:52:56.256Z,15.12
2023-01-19T13:55:24.619Z,15.13
2023-01-19T13:57:51.988Z,15.11
2023-01-19T14:00:23.673Z,15.00
2023-01-19T14:03:24.123Z,14.89
2023-01-19T14:05:53.248Z,14.73
2023-01-19T14:08:21.675Z,14.73
2023-01-19T14:10:54.945Z,14.79
2023-01-19T14:13:29.537Z,14.85
2023-01-19T14:16:18.309Z,14.80
2023-01-19T14:18:45.544Z,14.67
2023-01-19T14:21:15.133Z,14.67
2023-01-19T14:23:51.575Z,14.64
2023-01-19T14:26:46.834Z,14.60
2023-01-19T14:29:34.681Z,14.62
2023-01-19T14:32:15.044Z,14.57
2023-01-19T14:34:46.127Z,14.40
2023-01-19T14:37:22.347Z,14.39
2023-01-19T14:39:56.481Z,14.47
2023-01-19T14:42:37.690Z,14.34
2023-01-19T14:45:15.711Z,14.46
2023-01-19T14:47:46.242Z,14.47
2023-01-19T14:50:24.070Z,14.39
2023-01-19T14:52:56.918Z,14.33
2023-01-19T14:55:34.194Z,14.34
2023-01-19T14:58:01.402Z,14.29
2023-01-19T15:00:28.761Z,14.23
2023-01-19T15:02:55.768Z,14.22
2023-01-19T15:05:23.292Z,14.29
2023-01-19T15:07:50.541Z,14.28
2023-01-19T15:10:23.140Z,14.30
2023-01-19T15:12:52.269Z,14.27
2023-01-19T15:15:25.956Z,14.28
2023-01-19T15:17:56.051Z,14.26
2023-01-19T15:20:23.530Z,14.28
2023-01-19T15:22:53.223Z,14.29
2023-01-19T15:25:26.214Z,14.27
2023-01-19T15:27:57.551Z,14.26
2023-01-19T15:30:28.001Z,14.30
2023-01-19T15:32:55.317Z,14.26
2023-01-19T15:35:23.820Z,14.27
2023-01-19T15:37:51.237Z,14.09
2023-01-19T15:40:19.649Z,14.04
2023-01-19T15:42:46.690Z,14.01
2023-01-19T15:45:32.416Z,14.00
2023-01-19T15:48:02.108Z,14.03
2023-01-19T15:50:29.062Z,13.97
2023-01-19T15:52:56.079Z,13.96
2023-01-19T15:55:23.236Z,13.84
2023-01-19T15:58:01.862Z,13.76
2023-01-19T16:00:30.459Z,13.64
2023-01-19T16:02:58.292Z,13.59
2023-01-19T16:05:37.464Z,13.58
2023-01-19T16:08:09.891Z,13.52
2023-01-19T16:10:36.987Z,13.50
2023-01-19T16:13:04.717Z,13.42
2023-01-19T16:15:34.261Z,13.48
2023-01-19T16:18:01.365Z,13.44
2023-01-19T16:20:31.003Z,13.39
2023-01-19T16:23:09.691Z,13.35
2023-01-19T16:25:41.128Z,13.26
2023-01-19T16:28:08.579Z,13.20
2023-01-19T16:30:35.679Z,13.16
2023-01-19T16:33:02.594Z,13.17
2023-01-19T16:35:29.636Z,13.08
2023-01-19T16:37:56.554Z,13.03
2023-01-19T16:40:23.479Z,12.96
2023-01-19T16:42:51.352Z,12.92
2023-01-19T16:45:18.799Z,12.89
2023-01-19T16:47:50.564Z,12.80
2023-01-19T16:50:18.908Z,12.74
2023-01-19T16:52:46.085Z,12.64
2023-01-19T16:55:13.129Z,12.66
2023-01-19T16:57:40.408Z,12.67
2023-01-19T17:00:10.485Z,12.64
2023-01-19T17:02:37.849Z,12.60
2023-01-19T17:05:08.533Z,12.58
2023-01-19T17:07:35.707Z,12.57
2023-01-19T17:10:02.716Z,12.55
2023-01-19T17:12:32.083Z,12.40
2023-01-19T17:14:59.315Z,12.39
2023-01-19T17:17:26.217Z,12.38
2023-01-19T17:19:53.463Z,12.34
2023-01-19T17:22:20.805Z,12.37
2023-01-19T17:24:47.908Z,12.42
2023-01-19T17:27:14.791Z,12.40
2023-01-19T17:29:41.897Z,12.33
2023-01-19T17:32:09.604Z,12.35
2023-01-19T17:34:37.664Z,12.41
2023-01-19T17:37:04.961Z,12.43
2023-01-19T17:39:31.903Z,12.45
2023-01-19T17:41:59.145Z,12.46
2023-01-19T17:44:26.326Z,12.49
2023-01-19T17:46:53.192Z,12.46
2023-01-19T17:49:20.263Z,12.50
2023-01-19T17:51:52.033Z,12.57
2023-01-19T17:54:19.584Z,12.53
2023-01-19T17:56:46.607Z,12.54
2023-01-19T17:59:13.507Z,12.50
2023-01-19T18:01:41.620Z,12.55
2023-01-19T18:04:09.155Z,12.57
2023-01-19T18:06:37.214Z,12.59
2023-01-19T18:09:06.947Z,12.59
2023-01-19T18:11:34.741Z,12.58
2023-01-19T18:14:02.277Z,12.57
2023-01-19T18:16:30.341Z,12.56
2023-01-19T18:19:01.133Z,12.61
2023-01-19T18:21:29.230Z,12.60
2023-01-19T18:24:04.343Z,12.62
2023-01-19T18:26:39.032Z,12.58
2023-01-19T18:29:06.501Z,12.56
2023-01-19T18:31:33.518Z,12.59
2023-01-19T18:34:00.645Z,12.59
2023-01-19T18:36:27.822Z,12.50
2023-01-19T18:38:55.049Z,12.54
2023-01-19T18:41:22.212Z,12.49
2023-01-19T18:43:49.539Z,12.43
2023-01-19T18:46:16.818Z,12.40
2023-01-19T18:48:44.034Z,12.44
2023-01-19T18:51:13.562Z,12.42
2023-01-19T18:53:40.896Z,12.34
2023-01-19T18:56:11.212Z,12.33
2023-01-19T18:58:39.403Z,12.31
2023-01-19T19:01:18.397Z,12.28
2023-01-19T19:03:45.655Z,12.21
2023-01-19T19:06:12.612Z,12.19
2023-01-19T19:08:49.507Z,12.24
2023-01-19T19:11:19.170Z,12.21
2023-01-19T19:13:46.333Z,12.19
2023-01-19T19:16:13.603Z,12.16
2023-01-19T19:18:40.860Z,12.12
2023-01-19T19:21:10.964Z,12.08
2023-01-19T19:23:38.556Z,12.08
2023-01-19T19:26:10.582Z,12.04
2023-01-19T19:28:38.961Z,12.03
2023-01-19T19:31:07.284Z,12.03
2023-01-19T19:33:35.200Z,12.04
2023-01-19T19:36:02.252Z,12.04
2023-01-19T19:38:29.257Z,12.04
2023-01-19T19:40:57.500Z,12.00
2023-01-19T19:43:24.994Z,11.95
2023-01-19T19:46:03.297Z,11.97
2023-01-19T19:48:30.445Z,11.93
2023-01-19T19:51:17.169Z,11.88
2023-01-19T19:53:45.635Z,11.84
2023-01-19T19:56:13.519Z,11.81
2023-01-19T19:58:42.103Z,11.79
2023-01-19T20:01:16.246Z,11.78
2023-01-19T20:03:43.576Z,11.73
2023-01-19T20:06:24.274Z,11.74
2023-01-19T20:08:53.849Z,11.73
2023-01-19T20:11:23.684Z,11.75
2023-01-19T20:13:50.981Z,11.66
2023-01-19T20:16:21.071Z,11.59
2023-01-19T20:18:51.661Z,11.63
2023-01-19T20:21:21.585Z,11.67
2023-01-19T20:23:50.911Z,11.61
2023-01-19T20:26:20.159Z,11.57
2023-01-19T20:28:47.695Z,11.50
2023-01-19T20:31:19.244Z,11.54
2023-01-19T20:33:48.347Z,11.45
2023-01-19T20:36:16.248Z,11.44
2023-01-19T20:38:43.252Z,11.44
2023-01-19T20:41:12.974Z,11.45
2023-01-19T20:43:40.707Z,11.32
2023-01-19T20:46:07.938Z,11.27
2023-01-19T20:48:54.943Z,11.27
2023-01-19T20:51:23.138Z,11.23
2023-01-19T20:53:50.307Z,11.18
2023-01-19T20:56:18.202Z,11.17
2023-01-19T20:58:45.184Z,11.13
2023-01-19T21:01:21.371Z,11.11
2023-01-19T21:03:52.810Z,11.11
2023-01-19T21:06:21.737Z,11.05
2023-01-19T21:08:52.095Z,11.09
2023-01-19T21:11:25.658Z,11.06
2023-01-19T21:13:56.345Z,11.00
2023-01-19T21:16:32.520Z,11.07
2023-01-19T21:19:00.194Z,11.00
2023-01-19T21:21:31.682Z,11.02
2023-01-19T21:24:03.759Z,11.05
2023-01-19T21:26:33.760Z,11.10
2023-01-19T21:29:01.619Z,11.06
2023-01-19T21:31:32.119Z,11.07
2023-01-19T21:34:00.021Z,11.08
2023-01-19T21:36:27.232Z,11.12
2023-01-19T21:39:01.056Z,11.18
2023-01-19T21:41:30.086Z,11.18
2023-01-19T21:43:58.653Z,11.20
2023-01-19T21:46:29.374Z,11.22
2023-01-19T21:49:02.251Z,11.23
2023-01-19T21:51:33.601Z,11.18
2023-01-19T21:54:01.903Z,11.20
2023-01-19T21:56:29.749Z,11.20
2023-01-19T21:58:57.855Z,11.21
2023-01-19T22:01:25.505Z,11.24
2023-01-19T22:03:56.873Z,11.27
2023-01-19T22:06:25.072Z,11.30
2023-01-19T22:08:52.489Z,11.33
2023-01-19T22:11:21.621Z,11.37
2023-01-19T22:13:48.757Z,11.42
2023-01-19T22:16:19.269Z,11.51
2023-01-19T22:18:51.156Z,11.46
2023-01-19T22:21:21.057Z,11.50
2023-01-19T22:23:52.004Z,11.57
2023-01-19T22:26:19.533Z,11.58
2023-01-19T22:28:46.703Z,11.58
2023-01-19T22:31:17.482Z,11.61
2023-01-19T22:33:45.250Z,11.67
2023-01-19T22:36:20.782Z,11.72
2023-01-19T22:38:56.129Z,11.74
2023-01-19T22:41:26.220Z,11.80
2023-01-19T22:43:55.835Z,11.83
2023-01-19T22:46:25.243Z,11.78
2023-01-19T22:48:52.772Z,11.83
2023-01-19T22:51:20.879Z,11.89
2023-01-19T22:53:48.352Z,11.91
2023-01-19T22:56:20.423Z,11.89
2023-01-19T22:58:49.401Z,11.92
2023-01-19T23:01:19.901Z,11.97
2023-01-19T23:03:47.181Z,11.96
2023-01-19T23:06:22.057Z,11.94
2023-01-19T23:08:50.001Z,11.89
2023-01-19T23:11:35.595Z,11.90
2023-01-19T23:14:05.177Z,11.76
2023-01-19T23:16:32.111Z,11.82
2023-01-19T23:18:59.576Z,11.81
2023-01-19T23:21:29.554Z,11.66
2023-01-19T23:24:02.093Z,11.58
2023-01-19T23:26:38.288Z,11.59
2023-01-19T23:29:12.038Z,11.51
2023-01-19T23:31:42.344Z,11.55
2023-01-19T23:34:12.357Z,11.50
2023-01-19T23:36:41.070Z,11.54
2023-01-19T23:39:16.747Z,11.48
2023-01-19T23:41:43.707Z,11.46
2023-01-19T23:44:10.730Z,11.44
2023-01-19T23:46:38.587Z,11.33
2023-01-19T23:49:05.551Z,11.34
2023-01-19T23:51:33.509Z,11.22
2023-01-19T23:54:00.717Z,11.27
2023-01-19T23:56:34.665Z,11.22
2023-01-19T23:59:05.273Z,11.17
